Time,TemperatureF,DewpointF,PressureIn,WindDirection,WindDirectionDegrees,WindSpeedMPH,WindSpeedGustMPH,Humidity,HourlyPrecipIn,Conditions,Clouds,dailyrainin,SolarRadiationWatts/m^2,SoftwareType,DateUTC
2013-04-29 00:03:00,41.1,34.7,29.93,WSW,246,0.0,0.0,78,0.00,CLR,,0.00,0.0,WeatherDisplay:10.37,2013-04-28 22:03:00,
2013-04-29 00:08:00,41.1,34.7,29.92,WSW,245,2.0,4.0,78,0.00,CLR,,0.00,0.0,WeatherDisplay:10.37,2013-04-28 22:08:00,
2013-04-29 00:13:00,41.1,34.7,29.92,WSW,242,0.4,2.3,78,0.00,CLR,,0.00,0.0,WeatherDisplay:10.37,2013-04-28 22:13:00,
2013-04-29 00:18:00,41.1,35.1,29.92,WSW,240,1.5,2.3,79,0.00,CLR,,0.00,0.0,WeatherDisplay:10.37,2013-04-28 22:18:00,
2013-04-29 00:23:00,41.2,35.5,29.92,WSW,240,1.5,3.5,80,0.00,CLR,,0.00,0.0,WeatherDisplay:10.37,2013-04-28 22:23:00,
2013-04-29 00:28:00,41.3,35.6,29.92,WSW,240,1.8,3.5,80,0.00,CLR,,0.00,0.0,WeatherDisplay:10.37,2013-04-28 22:28:00,
2013-04-29 00:34:00,41.4,36.0,29.92,WSW,240,2.8,4.6,81,0.00,CLR,,0.00,0.0,WeatherDisplay:10.37,2013-04-28 22:34:00,
2013-04-29 00:39:00,41.4,36.0,29.92,WSW,238,2.5,5.8,81,0.00,CLR,,0.00,0.0,WeatherDisplay:10.37,2013-04-28 22:39:00,
2013-04-29 00:44:00,41.4,35.7,29.91,WSW,238,0.9,3.5,80,0.00,CLR,,0.00,0.0,WeatherDisplay:10.37,2013-04-28 22:44:00,
2013-04-29 00:49:00,41.4,36.0,29.91,WSW,238,3.4,5.0,81,0.00,CLR,,0.00,0.0,WeatherDisplay:10.37,2013-04-28 22:49:00,
2013-04-29 00:54:00,41.4,36.0,29.91,SW,234,2.6,4.6,81,0.00,CLR,,0.00,0.0,WeatherDisplay:10.37,2013-04-28 22:54:00,
2013-04-29 00:59:00,41.5,36.1,29.91,SW,232,2.5,3.5,81,0.00,CLR,,0.00,0.0,WeatherDisplay:10.37,2013-04-28 22:59:00,
2013-04-29 01:04:00,41.6,35.9,29.91,SW,221,4.0,9.2,80,0.00,CLR,,0.00,0.0,WeatherDisplay:10.37,2013-04-28 23:04:00,
2013-04-29 01:09:00,41.8,35.7,29.91,SW,217,4.9,8.1,79,0.00,CLR,,0.00,0.0,WeatherDisplay:10.37,2013-04-28 23:09:00,
2013-04-29 01:14:00,41.9,35.5,29.91,SW,217,4.2,7.0,78,0.00,CLR,,0.00,0.0,WeatherDisplay:10.37,2013-04-28 23:14:00,
2013-04-29 01:19:00,42.0,35.6,29.91,SSW,211,4.6,6.9,78,0.00,CLR,,0.00,0.0,WeatherDisplay:10.37,2013-04-28 23:19:00,
2013-04-29 01:24:00,42.1,36.0,29.91,SSW,211,2.8,4.6,79,0.00,CLR,,0.00,0.0,WeatherDisplay:10.37,2013-04-28 23:24:00,
2013-04-29 01:29:00,42.2,36.1,29.91,SW,218,3.8,6.9,79,0.00,CLR,,0.00,0.0,WeatherDisplay:10.37,2013-04-28 23:29:00,
2013-04-29 01:34:00,42.3,36.5,29.91,SW,225,4.0,6.9,80,0.00,CLR,,0.00,0.0,WeatherDisplay:10.37,2013-04-28 23:34:00,
2013-04-29 01:39:00,42.4,36.6,29.91,SW,225,3.9,5.8,80,0.00,CLR,,0.00,0.0,WeatherDisplay:10.37,2013-04-28 23:39:00,
2013-04-29 01:44:00,42.4,36.6,29.90,SW,221,3.2,5.8,80,0.00,CLR,,0.00,0.0,WeatherDisplay:10.37,2013-04-28 23:44:00,
2013-04-29 01:49:00,42.3,36.2,29.90,SW,219,3.3,4.6,79,0.00,CLR,,0.00,0.0,WeatherDisplay:10.37,2013-04-28 23:49:00,
2013-04-29 01:54:00,42.2,36.1,29.90,SW,220,4.6,8.1,79,0.00,CLR,,0.00,0.0,WeatherDisplay:10.37,2013-04-28 23:54:00,
2013-04-29 01:59:00,42.1,36.0,29.90,SW,224,3.7,8.1,79,0.00,CLR,,0.00,0.0,WeatherDisplay:10.37,2013-04-28 23:59:00,
2013-04-29 02:04:00,42.1,36.0,29.90,SW,227,4.5,8.1,79,0.00,CLR,,0.00,0.0,WeatherDisplay:10.37,2013-04-29 00:04:00,
2013-04-29 02:09:00,42.1,35.7,29.90,SSW,209,5.6,9.2,78,0.00,CLR,,0.00,0.0,WeatherDisplay:10.37,2013-04-29 00:09:00,
2013-04-29 02:14:00,42.0,35.6,29.90,SW,214,5.2,9.2,78,0.00,CLR,,0.00,0.0,WeatherDisplay:10.37,2013-04-29 00:14:00,
2013-04-29 02:19:00,41.9,35.2,29.90,SW,214,4.1,6.0,77,0.00,CLR,,0.00,0.0,WeatherDisplay:10.37,2013-04-29 00:19:00,
2013-04-29 02:24:00,41.9,34.9,29.89,SSW,206,5.8,9.2,76,0.00,CLR,,0.00,0.0,WeatherDisplay:10.37,2013-04-29 00:24:00,
2013-04-29 02:29:00,42.0,35.0,29.89,SW,215,3.5,4.6,76,0.00,CLR,,0.00,0.0,WeatherDisplay:10.37,2013-04-29 00:29:00,
2013-04-29 02:34:00,41.9,34.9,29.89,SSW,205,4.0,8.1,76,0.00,CLR,,0.00,0.0,WeatherDisplay:10.37,2013-04-29 00:34:00,
2013-04-29 02:39:00,41.9,34.9,29.89,SW,220,5.6,11.5,76,0.00,CLR,,0.00,0.0,WeatherDisplay:10.37,2013-04-29 00:39:00,
2013-04-29 02:44:00,42.0,35.0,29.89,SW,214,5.4,8.1,76,0.00,CLR,,0.00,0.0,WeatherDisplay:10.37,2013-04-29 00:44:00,
2013-04-29 02:49:00,42.1,35.4,29.89,SW,225,5.2,10.4,77,0.00,CLR,,0.00,0.0,WeatherDisplay:10.37,2013-04-29 00:49:00,
2013-04-29 02:54:00,42.1,35.4,29.89,SW,225,4.5,10.4,77,0.00,CLR,,0.00,0.0,WeatherDisplay:10.37,2013-04-29 00:54:00,
2013-04-29 02:59:00,42.1,35.4,29.89,SW,225,5.6,11.5,77,0.00,CLR,,0.00,0.0,WeatherDisplay:10.37,2013-04-29 00:59:00,
2013-04-29 03:04:00,42.1,35.7,29.89,SSW,212,2.9,4.6,78,0.00,CLR,,0.00,0.0,WeatherDisplay:10.37,2013-04-29 01:04:00,
2013-04-29 03:09:00,42.1,35.7,29.89,WSW,237,4.1,5.8,78,0.00,CLR,,0.00,0.0,WeatherDisplay:10.37,2013-04-29 01:09:00,
2013-04-29 03:14:00,42.3,35.9,29.89,SW,217,4.7,9.2,78,0.00,CLR,,0.00,0.0,WeatherDisplay:10.37,2013-04-29 01:14:00,
2013-04-29 03:19:00,42.5,36.1,29.89,SW,221,4.3,6.9,78,0.00,CLR,,0.00,0.0,WeatherDisplay:10.37,2013-04-29 01:19:00,
2013-04-29 03:24:00,42.6,36.2,29.88,SW,227,4.9,7.0,78,0.00,CLR,,0.00,0.0,WeatherDisplay:10.37,2013-04-29 01:24:00,
2013-04-29 03:29:00,42.8,36.1,29.89,SW,216,6.7,10.4,77,0.00,CLR,,0.00,0.0,WeatherDisplay:10.37,2013-04-29 01:29:00,
2013-04-29 03:34:00,42.9,36.2,29.88,SW,230,7.0,12.7,77,0.00,CLR,,0.00,0.0,WeatherDisplay:10.37,2013-04-29 01:34:00,
2013-04-29 03:39:00,43.0,35.9,29.88,SW,217,4.5,10.4,76,0.00,CLR,,0.00,0.0,WeatherDisplay:10.37,2013-04-29 01:39:00,
2013-04-29 03:44:00,43.0,35.9,29.88,WSW,240,5.3,11.5,76,0.00,CLR,,0.00,0.0,WeatherDisplay:10.37,2013-04-29 01:44:00,
2013-04-29 03:49:00,43.1,36.0,29.88,SW,231,8.5,13.8,76,0.00,CLR,,0.00,0.0,WeatherDisplay:10.37,2013-04-29 01:49:00,
2013-04-29 03:54:00,43.2,36.1,29.88,SSW,209,6.1,12.7,76,0.00,CLR,,0.00,0.0,WeatherDisplay:10.37,2013-04-29 01:54:00,
2013-04-29 03:59:00,43.3,36.2,29.89,WSW,250,8.7,11.5,76,0.00,CLR,,0.00,0.0,WeatherDisplay:10.37,2013-04-29 01:59:00,
2013-04-29 04:04:00,43.3,36.2,29.88,SW,231,4.9,6.9,76,0.00,CLR,,0.00,0.0,WeatherDisplay:10.37,2013-04-29 02:04:00,
2013-04-29 04:09:00,43.3,36.2,29.88,SW,223,7.1,12.7,76,0.00,CLR,,0.00,0.0,WeatherDisplay:10.37,2013-04-29 02:09:00,
2013-04-29 04:14:00,43.3,36.2,29.88,SW,214,5.5,10.4,76,0.00,CLR,,0.00,0.0,WeatherDisplay:10.37,2013-04-29 02:14:00,
2013-04-29 04:19:00,43.4,36.3,29.88,SW,234,7.9,11.5,76,0.00,CLR,,0.00,0.0,WeatherDisplay:10.37,2013-04-29 02:19:00,
2013-04-29 04:24:00,43.4,36.7,29.88,SW,236,5.0,8.1,77,0.00,CLR,,0.00,0.0,WeatherDisplay:10.37,2013-04-29 02:24:00,
2013-04-29 04:29:00,43.5,36.7,29.88,SW,233,9.3,15.0,77,0.00,CLR,,0.00,0.0,WeatherDisplay:10.37,2013-04-29 02:29:00,
2013-04-29 04:34:00,43.6,36.8,29.88,WSW,238,8.0,11.5,77,0.00,CLR,,0.00,0.0,WeatherDisplay:10.37,2013-04-29 02:34:00,
2013-04-29 04:39:00,43.6,36.8,29.88,SW,231,7.0,11.5,77,0.00,CLR,,0.00,0.0,WeatherDisplay:10.37,2013-04-29 02:39:00,
2013-04-29 04:44:00,43.6,36.8,29.87,SW,217,6.9,10.4,77,0.00,CLR,,0.00,0.0,WeatherDisplay:10.37,2013-04-29 02:44:00,
2013-04-29 04:49:00,43.7,37.3,29.88,SW,236,7.5,10.4,78,0.00,CLR,,0.00,0.0,WeatherDisplay:10.37,2013-04-29 02:49:00,
2013-04-29 04:54:00,43.7,37.6,29.87,SW,219,7.1,11.5,79,0.00,CLR,,0.00,0.0,WeatherDisplay:10.37,2013-04-29 02:54:00,
2013-04-29 04:59:00,43.7,37.6,29.87,SW,228,5.5,8.1,79,0.00,CLR,,0.00,0.0,WeatherDisplay:10.37,2013-04-29 02:59:00,
2013-04-29 05:04:00,43.7,37.6,29.87,SW,220,5.7,9.0,79,0.00,SCT,,0.00,0.0,WeatherDisplay:10.37,2013-04-29 03:04:00,
2013-04-29 05:09:00,43.8,37.7,29.87,SW,227,6.9,12.0,79,0.00,SCT,,0.00,0.0,WeatherDisplay:10.37,2013-04-29 03:09:00,
2013-04-29 05:14:00,43.9,37.8,29.87,SW,221,5.8,9.2,79,0.00,SCT,,0.00,0.0,WeatherDisplay:10.37,2013-04-29 03:14:00,
2013-04-29 05:19:00,43.9,37.5,29.86,SSW,211,4.5,6.9,78,0.00,SCT,,0.00,0.0,WeatherDisplay:10.37,2013-04-29 03:19:00,
2013-04-29 05:24:00,44.0,37.9,29.86,SW,216,7.2,10.4,79,0.00,SCT,,0.00,0.0,WeatherDisplay:10.37,2013-04-29 03:24:00,
2013-04-29 05:29:00,44.0,37.9,29.86,SW,225,5.4,8.1,79,0.00,SCT,,0.00,0.0,WeatherDisplay:10.37,2013-04-29 03:29:00,
2013-04-29 05:34:00,44.0,37.9,29.86,SW,227,6.7,10.4,79,0.00,SCT,,0.00,0.0,WeatherDisplay:10.37,2013-04-29 03:34:00,
2013-04-29 05:39:00,44.1,38.3,29.86,SW,221,6.4,9.2,80,0.00,SCT,,0.00,0.0,WeatherDisplay:10.37,2013-04-29 03:39:00,
2013-04-29 05:44:00,44.1,38.3,29.86,SW,235,9.0,15.0,80,0.00,SCT,,0.00,0.0,WeatherDisplay:10.37,2013-04-29 03:44:00,
2013-04-29 05:49:00,44.2,38.1,29.86,SW,218,6.7,11.5,79,0.00,SCT,,0.00,0.0,WeatherDisplay:10.37,2013-04-29 03:49:00,
2013-04-29 05:54:00,44.3,38.2,29.86,SW,215,9.4,15.0,79,0.00,SCT,,0.00,0.0,WeatherDisplay:10.37,2013-04-29 03:54:00,
2013-04-29 05:59:00,44.4,38.3,29.86,SW,228,7.8,13.8,79,0.00,SCT,,0.00,0.0,WeatherDisplay:10.37,2013-04-29 03:59:00,
2013-04-29 06:01:00,44.4,38.3,29.86,WSW,240,8.0,12.0,79,0.00,SCT,,0.00,0.0,WeatherDisplay:10.37,2013-04-29 04:01:00,
2013-04-29 06:06:00,44.4,38.3,29.86,SW,232,10.0,12.7,79,0.00,OVC,,0.00,0.0,WeatherDisplay:10.37,2013-04-29 04:06:00,
2013-04-29 06:11:00,44.4,38.6,29.86,SW,235,12.0,15.0,80,0.00,OVC,,0.00,0.0,WeatherDisplay:10.37,2013-04-29 04:11:00,
2013-04-29 06:16:00,44.3,38.5,29.86,SW,234,9.8,13.8,80,0.00,OVC,,0.00,0.0,WeatherDisplay:10.37,2013-04-29 04:16:00,
2013-04-29 06:21:00,44.4,38.6,29.86,SW,229,6.5,11.5,80,0.00,OVC,,0.00,0.0,WeatherDisplay:10.37,2013-04-29 04:21:00,
2013-04-29 06:26:00,44.4,38.6,29.86,SW,221,10.0,15.0,80,0.00,OVC,,0.00,0.0,WeatherDisplay:10.37,2013-04-29 04:26:00,
2013-04-29 06:31:00,44.4,38.9,29.86,SW,214,7.5,11.5,81,0.00,OVC,,0.00,0.0,WeatherDisplay:10.37,2013-04-29 04:31:00,
2013-04-29 06:36:00,44.4,38.9,29.86,West,263,7.9,12.7,81,0.00,OVC,,0.00,0.0,WeatherDisplay:10.37,2013-04-29 04:36:00,
2013-04-29 06:41:00,44.4,38.9,29.86,SW,235,9.0,17.3,81,0.00,OVC,,0.00,0.0,WeatherDisplay:10.37,2013-04-29 04:41:00,
2013-04-29 06:46:00,44.5,39.0,29.86,WSW,250,8.2,12.7,81,0.00,OVC,,0.00,0.0,WeatherDisplay:10.37,2013-04-29 04:46:00,
2013-04-29 06:51:00,44.5,39.3,29.86,SW,235,5.3,11.5,82,0.00,OVC,,0.00,0.0,WeatherDisplay:10.37,2013-04-29 04:51:00,
2013-04-29 06:56:00,44.5,39.6,29.86,SW,227,7.0,8.1,83,0.00,OVC,,0.00,7.0,WeatherDisplay:10.37,2013-04-29 04:56:00,
2013-04-29 07:01:00,44.4,39.8,29.86,SW,222,11.2,15.0,84,0.00,OVC,,0.00,7.0,WeatherDisplay:10.37,2013-04-29 05:01:00,
2013-04-29 07:06:00,44.2,40.0,29.86,SW,223,5.0,11.5,85,0.00,OVC,,0.00,7.0,WeatherDisplay:10.37,2013-04-29 05:06:00,
2013-04-29 07:11:00,44.0,40.4,29.86,SW,233,8.4,11.5,87,0.00,OVC,,0.00,7.0,WeatherDisplay:10.37,2013-04-29 05:11:00,
2013-04-29 07:16:00,43.9,40.6,29.86,SW,236,10.9,17.3,88,0.00,OVC,,0.00,7.0,WeatherDisplay:10.37,2013-04-29 05:16:00,
2013-04-29 07:21:00,43.8,40.7,29.86,SW,236,10.0,12.7,89,0.00,OVC,,0.00,11.0,WeatherDisplay:10.37,2013-04-29 05:21:00,
2013-04-29 07:26:00,43.7,40.7,29.87,WSW,243,6.6,9.2,89,0.00,OVC,,0.00,9.0,WeatherDisplay:10.37,2013-04-29 05:26:00,
2013-04-29 07:31:00,43.7,40.9,29.87,SW,223,6.6,12.7,90,0.01,RA,,0.01,16.0,WeatherDisplay:10.37,2013-04-29 05:31:00,
2013-04-29 07:36:00,43.8,41.0,29.87,SSW,213,5.4,10.4,90,0.01,RA,,0.01,18.0,WeatherDisplay:10.37,2013-04-29 05:36:00,
2013-04-29 07:41:00,43.8,41.3,29.87,WSW,246,8.0,16.1,91,0.01,RA,,0.01,14.0,WeatherDisplay:10.37,2013-04-29 05:41:00,
2013-04-29 07:46:00,43.9,41.4,29.87,SW,234,9.4,15.0,91,0.01,RA,,0.01,12.0,WeatherDisplay:10.37,2013-04-29 05:46:00,
2013-04-29 07:51:00,44.0,41.5,29.87,WSW,244,10.5,13.8,91,0.01,RA,,0.01,33.0,WeatherDisplay:10.37,2013-04-29 05:51:00,
2013-04-29 07:56:00,44.1,41.6,29.87,WSW,237,12.2,15.0,91,0.02,RA,,0.02,30.0,WeatherDisplay:10.37,2013-04-29 05:56:00,
2013-04-29 08:01:00,44.2,41.7,29.87,SW,236,9.9,16.1,91,0.02,RA,,0.02,23.0,WeatherDisplay:10.37,2013-04-29 06:01:00,
2013-04-29 08:06:00,44.2,42.0,29.87,SW,234,10.6,13.8,92,0.02,RA,,0.02,19.0,WeatherDisplay:10.37,2013-04-29 06:06:00,
2013-04-29 08:11:00,44.2,42.0,29.87,WSW,240,6.1,11.5,92,0.02,RA,,0.02,18.0,WeatherDisplay:10.37,2013-04-29 06:11:00,
2013-04-29 08:16:00,44.2,42.0,29.87,SW,224,11.1,19.0,92,0.02,RA,,0.02,28.0,WeatherDisplay:10.37,2013-04-29 06:16:00,
2013-04-29 08:21:00,44.3,42.4,29.87,WSW,243,5.5,10.4,93,0.02,RA,,0.02,9.0,WeatherDisplay:10.37,2013-04-29 06:21:00,
2013-04-29 08:26:00,44.4,42.5,29.87,WSW,240,9.8,18.4,93,0.02,RA,,0.02,21.0,WeatherDisplay:10.37,2013-04-29 06:26:00,
2013-04-29 08:31:00,44.5,42.6,29.87,WSW,250,9.9,13.8,93,0.02, +DZ,,0.02,49.0,WeatherDisplay:10.37,2013-04-29 06:31:00,
2013-04-29 08:36:00,44.7,42.8,29.87,SW,228,7.1,11.5,93,0.02, +DZ,,0.02,54.0,WeatherDisplay:10.37,2013-04-29 06:36:00,
2013-04-29 08:41:00,45.0,43.1,29.88,WSW,248,12.1,15.0,93,0.02, +DZ,,0.02,51.0,WeatherDisplay:10.37,2013-04-29 06:41:00,
2013-04-29 08:46:00,45.2,43.6,29.88,WSW,250,8.4,11.5,94,0.02, +DZ,,0.02,21.0,WeatherDisplay:10.37,2013-04-29 06:46:00,
2013-04-29 08:51:00,45.4,43.5,29.88,WSW,246,8.5,15.0,93,0.02, +DZ,,0.02,46.0,WeatherDisplay:10.37,2013-04-29 06:51:00,
2013-04-29 08:56:00,45.5,43.6,29.88,WSW,238,11.1,15.0,93,0.01, +DZ,,0.02,23.0,WeatherDisplay:10.37,2013-04-29 06:56:00,
2013-04-29 09:01:00,45.7,44.1,29.88,West,259,9.7,15.0,94,0.01,-RA,,0.02,58.0,WeatherDisplay:10.37,2013-04-29 07:01:00,
2013-04-29 09:06:00,45.8,43.9,29.88,WSW,254,12.3,18.4,93,0.01,-RA,,0.02,102.0,WeatherDisplay:10.37,2013-04-29 07:06:00,
2013-04-29 09:11:00,46.0,44.1,29.88,SW,235,6.1,11.5,93,0.00,-RA,,0.02,53.0,WeatherDisplay:10.37,2013-04-29 07:11:00,
2013-04-29 09:16:00,46.2,44.3,29.89,WSW,246,10.3,13.8,93,0.00,-RA,,0.02,32.0,WeatherDisplay:10.37,2013-04-29 07:16:00,
2013-04-29 09:21:00,46.2,44.3,29.89,WSW,251,9.6,13.0,93,0.00,-RA,,0.02,109.0,WeatherDisplay:10.37,2013-04-29 07:21:00,
2013-04-29 09:29:00,46.5,44.6,29.89,WSW,258,13.0,13.8,93,0.00,-RA,,0.02,65.0,WeatherDisplay:10.37,2013-04-29 07:29:00,
2013-04-29 09:34:00,46.6,44.4,29.89,SW,236,11.5,17.3,92,0.00,RA,,0.02,74.0,WeatherDisplay:10.37,2013-04-29 07:34:00,
2013-04-29 09:39:00,46.7,44.5,29.89,SW,232,12.8,18.4,92,0.00,RA,,0.02,91.0,WeatherDisplay:10.37,2013-04-29 07:39:00,
2013-04-29 09:44:00,46.8,44.6,29.89,WSW,241,8.0,18.4,92,0.00,RA,,0.02,120.0,WeatherDisplay:10.37,2013-04-29 07:44:00,
2013-04-29 09:49:00,46.9,44.7,29.89,WSW,248,11.7,21.9,92,0.00,OVC,,0.02,54.0,WeatherDisplay:10.37,2013-04-29 07:49:00,
2013-04-29 09:54:00,47.0,44.5,29.90,West,260,10.1,17.3,91,0.00,OVC,,0.02,47.0,WeatherDisplay:10.37,2013-04-29 07:54:00,
2013-04-29 09:59:00,47.1,44.6,29.90,WSW,255,9.6,13.8,91,0.00,OVC,,0.02,176.0,WeatherDisplay:10.37,2013-04-29 07:59:00,
2013-04-29 10:04:00,47.2,44.4,29.91,West,265,9.4,16.0,90,0.00,-RA,,0.02,130.0,WeatherDisplay:10.37,2013-04-29 08:04:00,
2013-04-29 10:09:00,47.1,44.3,29.91,West,260,5.8,12.7,90,0.00,-RA,,0.02,47.0,WeatherDisplay:10.37,2013-04-29 08:09:00,
2013-04-29 10:14:00,47.0,43.9,29.91,WSW,248,5.6,11.5,89,0.00,-RA,,0.02,51.0,WeatherDisplay:10.37,2013-04-29 08:14:00,
2013-04-29 10:19:00,46.7,43.3,29.91,WNW,286,7.4,13.8,88,0.00,-RA,,0.02,40.0,WeatherDisplay:10.37,2013-04-29 08:19:00,
2013-04-29 10:24:00,45.7,41.4,29.92,WNW,290,10.7,16.1,85,0.00,-RA,,0.02,79.0,WeatherDisplay:10.37,2013-04-29 08:24:00,
2013-04-29 10:29:00,44.8,40.5,29.92,WNW,286,9.6,12.0,85,0.00,-RA,,0.02,77.0,WeatherDisplay:10.37,2013-04-29 08:29:00,
2013-04-29 10:34:00,44.5,40.6,29.92,WNW,290,4.9,8.0,86,0.00,-RA,,0.02,63.0,WeatherDisplay:10.37,2013-04-29 08:34:00,
2013-04-29 10:39:00,44.5,40.6,29.92,WNW,301,5.3,8.1,86,0.00,-RA,,0.02,123.0,WeatherDisplay:10.37,2013-04-29 08:39:00,
2013-04-29 10:44:00,44.7,41.0,29.92,WNW,303,5.6,9.2,87,0.00,-RA,,0.02,148.0,WeatherDisplay:10.37,2013-04-29 08:44:00,
2013-04-29 10:49:00,44.8,41.1,29.93,WNW,291,7.5,13.8,87,0.00,-RA,,0.02,84.0,WeatherDisplay:10.37,2013-04-29 08:49:00,
2013-04-29 10:54:00,44.9,41.2,29.94,WNW,300,7.0,12.7,87,0.01,-RA,,0.03,58.0,WeatherDisplay:10.37,2013-04-29 08:54:00,
2013-04-29 10:59:00,44.7,41.3,29.94,West,280,3.3,9.2,88,0.02,-RA,,0.04,67.0,WeatherDisplay:10.37,2013-04-29 08:59:00,
2013-04-29 11:04:00,44.5,41.4,29.94,West,269,4.0,8.0,89,0.02,RA,,0.05,77.0,WeatherDisplay:10.37,2013-04-29 09:04:00,
2013-04-29 11:09:00,44.5,41.7,29.94,WSW,245,7.6,9.2,90,0.04,RA,,0.06,70.0,WeatherDisplay:10.37,2013-04-29 09:09:00,
2013-04-29 11:14:00,44.3,41.5,29.95,WSW,249,7.6,9.2,90,0.05,RA,,0.07,109.0,WeatherDisplay:10.37,2013-04-29 09:14:00,
2013-04-29 11:19:00,44.4,41.6,29.95,WSW,242,5.2,8.1,90,0.05,RA,,0.07,202.0,WeatherDisplay:10.37,2013-04-29 09:19:00,
2013-04-29 11:24:00,44.6,42.1,29.95,WSW,255,3.5,5.0,91,0.05,RA,,0.07,301.0,WeatherDisplay:10.37,2013-04-29 09:24:00,
2013-04-29 11:29:00,45.3,42.8,29.95,WSW,253,5.3,6.9,91,0.05,RA,,0.07,455.0,WeatherDisplay:10.37,2013-04-29 09:29:00,
2013-04-29 11:34:00,46.2,44.0,29.95,WSW,253,6.7,11.5,92,0.05,-RA,,0.07,577.0,WeatherDisplay:10.37,2013-04-29 09:34:00,
2013-04-29 11:39:00,46.3,43.8,29.95,West,265,6.2,11.5,91,0.05,-RA,,0.07,294.0,WeatherDisplay:10.37,2013-04-29 09:39:00,
2013-04-29 11:44:00,46.2,43.4,29.96,West,263,9.0,12.0,90,0.05,-RA,,0.07,216.0,WeatherDisplay:10.37,2013-04-29 09:44:00,
2013-04-29 11:49:00,46.1,42.7,29.96,West,271,5.4,10.4,88,0.05,-RA,,0.07,148.0,WeatherDisplay:10.37,2013-04-29 09:49:00,
2013-04-29 11:54:00,46.1,42.4,29.96,NNW,336,2.1,9.2,87,0.04,-RA,,0.07,153.0,WeatherDisplay:10.37,2013-04-29 09:54:00,
2013-04-29 11:59:00,46.1,42.1,29.96,WSW,253,6.9,10.4,86,0.03,-RA,,0.07,232.0,WeatherDisplay:10.37,2013-04-29 09:59:00,
2013-04-29 12:04:00,46.2,42.2,29.96,WNW,294,8.7,10.0,86,0.02,FEW,,0.07,315.0,WeatherDisplay:10.37,2013-04-29 10:04:00,
2013-04-29 12:09:00,46.3,41.7,29.96,WNW,292,3.4,6.9,84,0.01,FEW,,0.07,427.0,WeatherDisplay:10.37,2013-04-29 10:09:00,
2013-04-29 12:14:00,46.6,41.4,29.97,WNW,294,6.7,11.5,82,0.00,FEW,,0.07,626.0,WeatherDisplay:10.37,2013-04-29 10:14:00,
2013-04-29 12:19:00,47.1,41.2,29.97,WNW,294,2.3,9.2,80,0.00,FEW,,0.07,788.0,WeatherDisplay:10.37,2013-04-29 10:19:00,
2013-04-29 12:24:00,47.9,41.7,29.97,WNW,302,5.3,11.5,79,0.00,FEW,,0.07,803.0,WeatherDisplay:10.37,2013-04-29 10:24:00,
2013-04-29 12:29:00,48.3,40.7,29.97,West,274,7.3,10.4,75,0.00,FEW,,0.07,596.0,WeatherDisplay:10.37,2013-04-29 10:29:00,
2013-04-29 12:34:00,48.6,40.3,29.97,West,275,6.1,9.2,73,0.00,FEW,,0.07,803.0,WeatherDisplay:10.37,2013-04-29 10:34:00,
2013-04-29 12:39:00,49.0,40.3,29.97,WNW,289,6.1,11.5,72,0.00,FEW,,0.07,816.0,WeatherDisplay:10.37,2013-04-29 10:39:00,
2013-04-29 12:44:00,49.4,40.7,29.98,West,261,7.4,11.5,72,0.00,FEW,,0.07,830.0,WeatherDisplay:10.37,2013-04-29 10:44:00,
2013-04-29 12:49:00,49.7,40.7,29.98,West,259,9.1,11.5,71,0.00,FEW,,0.07,821.0,WeatherDisplay:10.37,2013-04-29 10:49:00,
2013-04-29 12:54:00,50.0,40.6,29.98,West,267,9.4,11.5,70,0.00,FEW,,0.07,823.0,WeatherDisplay:10.37,2013-04-29 10:54:00,
2013-04-29 12:59:00,50.2,40.0,29.98,WSW,237,8.4,11.5,68,0.00,FEW,,0.07,851.0,WeatherDisplay:10.37,2013-04-29 10:59:00,
2013-04-29 13:04:00,50.2,40.0,29.98,West,267,7.3,15.0,68,0.00,FEW,,0.07,831.0,WeatherDisplay:10.37,2013-04-29 11:04:00,
2013-04-29 13:09:00,50.3,39.7,29.98,NW,307,10.3,16.1,67,0.00,FEW,,0.07,830.0,WeatherDisplay:10.37,2013-04-29 11:09:00,
2013-04-29 13:14:00,50.0,39.1,29.99,West,270,6.6,15.0,66,0.00,FEW,,0.07,833.0,WeatherDisplay:10.37,2013-04-29 11:14:00,
2013-04-29 13:19:00,50.3,38.2,29.99,WNW,298,12.0,13.8,63,0.00,FEW,,0.07,803.0,WeatherDisplay:10.37,2013-04-29 11:19:00,
2013-04-29 13:24:00,50.2,38.5,29.99,WNW,302,8.8,12.0,64,0.00,FEW,,0.07,837.0,WeatherDisplay:10.37,2013-04-29 11:24:00,
2013-04-29 13:29:00,50.7,39.3,29.99,West,259,7.4,11.5,65,0.00,FEW,,0.07,837.0,WeatherDisplay:10.37,2013-04-29 11:29:00,
2013-04-29 13:34:00,50.7,38.1,29.99,WNW,289,9.5,12.7,62,0.00,FEW,,0.07,840.0,WeatherDisplay:10.37,2013-04-29 11:34:00,
2013-04-29 13:39:00,50.5,37.1,29.99,NW,315,9.9,15.0,60,0.00,FEW,,0.07,842.0,WeatherDisplay:10.37,2013-04-29 11:39:00,
2013-04-29 13:44:00,50.4,37.4,30.00,WNW,282,6.9,15.0,61,0.00,FEW,,0.07,733.0,WeatherDisplay:10.37,2013-04-29 11:44:00,
2013-04-29 13:49:00,50.7,38.1,30.00,West,274,6.2,12.0,62,0.00,FEW,,0.07,840.0,WeatherDisplay:10.37,2013-04-29 11:49:00,
2013-04-29 13:54:00,50.8,39.0,30.00,WNW,289,4.9,10.4,64,0.00,FEW,,0.07,833.0,WeatherDisplay:10.37,2013-04-29 11:54:00,
2013-04-29 13:59:00,51.0,39.2,30.00,NNW,327,8.7,16.1,64,0.00,FEW,,0.07,842.0,WeatherDisplay:10.37,2013-04-29 11:59:00,
2013-04-29 14:04:00,51.0,39.2,30.00,WNW,302,7.4,11.5,64,0.00,FEW,,0.07,838.0,WeatherDisplay:10.37,2013-04-29 12:04:00,
2013-04-29 14:09:00,51.2,38.6,30.00,WNW,282,8.5,11.5,62,0.00,FEW,,0.07,842.0,WeatherDisplay:10.37,2013-04-29 12:09:00,
2013-04-29 14:14:00,51.5,38.9,30.00,West,277,9.0,13.8,62,0.00,FEW,,0.07,837.0,WeatherDisplay:10.37,2013-04-29 12:14:00,
2013-04-29 14:19:00,51.4,38.0,30.01,WNW,288,10.6,14.0,60,0.00,FEW,,0.07,837.0,WeatherDisplay:10.37,2013-04-29 12:19:00,
2013-04-29 14:24:00,51.7,37.8,30.01,WNW,282,7.6,11.5,59,0.00,FEW,,0.07,838.0,WeatherDisplay:10.37,2013-04-29 12:24:00,
2013-04-29 14:29:00,51.7,36.9,30.01,West,271,6.2,12.7,57,0.00,FEW,,0.07,838.0,WeatherDisplay:10.37,2013-04-29 12:29:00,
2013-04-29 14:34:00,51.7,37.4,30.02,WNW,302,10.5,15.0,58,0.00,FEW,,0.07,830.0,WeatherDisplay:10.37,2013-04-29 12:34:00,
2013-04-29 14:39:00,51.6,37.7,30.01,NW,311,8.0,13.8,59,0.00,FEW,,0.07,837.0,WeatherDisplay:10.37,2013-04-29 12:39:00,
2013-04-29 14:44:00,51.8,37.9,30.02,WSW,258,7.6,10.0,59,0.00,FEW,,0.07,823.0,WeatherDisplay:10.37,2013-04-29 12:44:00,
2013-04-29 14:49:00,51.7,38.2,30.02,WNW,282,10.9,15.0,60,0.00,FEW,,0.07,819.0,WeatherDisplay:10.37,2013-04-29 12:49:00,
2013-04-29 14:54:00,52.0,38.5,30.02,West,277,7.0,10.4,60,0.00,FEW,,0.07,814.0,WeatherDisplay:10.37,2013-04-29 12:54:00,
2013-04-29 14:59:00,52.1,39.0,30.02,West,266,10.3,17.3,61,0.00,FEW,,0.07,812.0,WeatherDisplay:10.37,2013-04-29 12:59:00,
2013-04-29 15:04:00,51.8,38.3,30.03,WSW,257,10.4,15.0,60,0.00,FEW,,0.07,805.0,WeatherDisplay:10.37,2013-04-29 13:04:00,
2013-04-29 15:09:00,51.8,38.3,30.03,WSW,250,10.6,16.0,60,0.00,FEW,,0.07,800.0,WeatherDisplay:10.37,2013-04-29 13:09:00,
2013-04-29 15:14:00,52.3,38.8,30.03,West,261,6.4,11.5,60,0.00,FEW,,0.07,795.0,WeatherDisplay:10.37,2013-04-29 13:14:00,
2013-04-29 15:19:00,52.5,38.6,30.03,West,259,6.5,12.7,59,0.00,FEW,,0.07,805.0,WeatherDisplay:10.37,2013-04-29 13:19:00,
2013-04-29 15:24:00,52.1,38.2,30.03,WSW,246,11.3,16.1,59,0.00,FEW,,0.07,788.0,WeatherDisplay:10.37,2013-04-29 13:24:00,
2013-04-29 15:29:00,52.4,38.5,30.04,West,261,9.5,12.7,59,0.00,FEW,,0.07,795.0,WeatherDisplay:10.37,2013-04-29 13:29:00,
2013-04-29 15:34:00,52.2,38.7,30.04,West,261,6.5,15.0,60,0.00,SCT,,0.07,163.0,WeatherDisplay:10.37,2013-04-29 13:34:00,
2013-04-29 15:39:00,52.2,38.3,30.04,WNW,297,4.7,13.8,59,0.00,FEW,,0.07,791.0,WeatherDisplay:10.37,2013-04-29 13:39:00,
2013-04-29 15:44:00,52.0,37.7,30.03,WNW,297,8.6,10.4,58,0.00,OVC,,0.07,728.0,WeatherDisplay:10.37,2013-04-29 13:44:00,
2013-04-29 15:49:00,51.9,37.6,30.04,West,275,4.4,5.8,58,0.00,SCT,,0.07,803.0,WeatherDisplay:10.37,2013-04-29 13:49:00,
2013-04-29 15:54:00,52.5,38.6,30.04,West,264,6.8,10.4,59,0.00,FEW,,0.07,756.0,WeatherDisplay:10.37,2013-04-29 13:54:00,
2013-04-29 15:59:00,52.3,37.5,30.04,NNW,327,6.9,9.2,57,0.00,SCT,,0.07,800.0,WeatherDisplay:10.37,2013-04-29 13:59:00,
2013-04-29 16:04:00,52.1,36.9,30.04,WNW,294,9.0,9.2,56,0.00,FEW,,0.07,211.0,WeatherDisplay:10.37,2013-04-29 14:04:00,
2013-04-29 16:09:00,51.8,36.6,30.04,West,265,6.2,15.0,56,0.00,FEW,,0.07,742.0,WeatherDisplay:10.37,2013-04-29 14:09:00,
2013-04-29 16:14:00,52.2,37.8,30.04,West,273,5.0,11.5,58,0.00,FEW,,0.07,719.0,WeatherDisplay:10.37,2013-04-29 14:14:00,
2013-04-29 16:19:00,52.9,38.1,30.04,NW,308,7.7,11.5,57,0.00,FEW,,0.07,689.0,WeatherDisplay:10.37,2013-04-29 14:19:00,
2013-04-29 16:24:00,53.2,38.3,30.04,West,277,6.9,15.0,57,0.00,FEW,,0.07,664.0,WeatherDisplay:10.37,2013-04-29 14:24:00,
2013-04-29 16:29:00,53.1,37.3,30.04,West,262,9.9,12.7,55,0.00,FEW,,0.07,666.0,WeatherDisplay:10.37,2013-04-29 14:29:00,
2013-04-29 16:34:00,53.0,38.6,30.05,West,277,6.7,11.0,58,0.00,FEW,,0.07,654.0,WeatherDisplay:10.37,2013-04-29 14:34:00,
2013-04-29 16:39:00,53.3,38.9,30.05,WSW,242,6.7,11.5,58,0.00,FEW,,0.07,645.0,WeatherDisplay:10.37,2013-04-29 14:39:00,
2013-04-29 16:44:00,53.2,38.8,30.05,West,263,11.6,13.8,58,0.00,FEW,,0.07,631.0,WeatherDisplay:10.37,2013-04-29 14:44:00,
2013-04-29 16:49:00,53.0,38.1,30.05,West,275,8.1,14.0,57,0.00,FEW,,0.07,619.0,WeatherDisplay:10.37,2013-04-29 14:49:00,
2013-04-29 16:54:00,52.9,37.6,30.05,WSW,249,10.2,15.0,56,0.00,FEW,,0.07,606.0,WeatherDisplay:10.37,2013-04-29 14:54:00,
2013-04-29 16:59:00,53.0,38.1,30.05,West,259,10.6,15.0,57,0.00,FEW,,0.07,592.0,WeatherDisplay:10.37,2013-04-29 14:59:00,
2013-04-29 17:04:00,52.8,37.5,30.05,WNW,283,11.4,15.0,56,0.00,FEW,,0.07,582.0,WeatherDisplay:10.37,2013-04-29 15:04:00,
2013-04-29 17:09:00,52.8,38.0,30.05,WSW,248,7.9,13.8,57,0.00,FEW,,0.07,573.0,WeatherDisplay:10.37,2013-04-29 15:09:00,
2013-04-29 17:14:00,52.8,37.0,30.05,WNW,300,10.5,11.5,55,0.00,FEW,,0.07,559.0,WeatherDisplay:10.37,2013-04-29 15:14:00,
2013-04-29 17:19:00,52.7,37.4,30.05,WNW,302,8.5,12.7,56,0.00,FEW,,0.07,543.0,WeatherDisplay:10.37,2013-04-29 15:19:00,
2013-04-29 17:24:00,52.5,37.7,30.05,WSW,256,7.6,13.8,57,0.00,FEW,,0.07,536.0,WeatherDisplay:10.37,2013-04-29 15:24:00,
2013-04-29 17:29:00,52.6,37.8,30.05,WNW,284,10.2,16.1,57,0.00,FEW,,0.07,519.0,WeatherDisplay:10.37,2013-04-29 15:29:00,
2013-04-29 17:34:00,52.6,37.8,30.05,WNW,284,10.2,16.1,57,0.00,FEW,,0.07,519.0,WeatherDisplay:10.37,2013-04-29 15:34:00,
2013-04-29 17:39:00,53.2,38.3,30.05,WSW,237,11.3,15.0,57,0.00,RA,,0.07,489.0,WeatherDisplay:10.37,2013-04-29 15:39:00,
2013-04-29 17:44:00,53.5,38.2,30.05,SSW,209,7.3,18.4,56,0.00,RA,,0.07,473.0,WeatherDisplay:10.37,2013-04-29 15:44:00,
2013-04-29 17:49:00,53.7,37.9,30.06,WSW,257,10.6,12.7,55,0.00,RA,,0.07,459.0,WeatherDisplay:10.37,2013-04-29 15:49:00,
2013-04-29 17:54:00,53.7,38.3,30.05,West,263,6.5,8.1,56,0.00,RA,,0.07,446.0,WeatherDisplay:10.37,2013-04-29 15:54:00,
2013-04-29 18:36:00,54.2,36.9,30.05,WNW,289,15.0,15.0,52,0.00,OVC,,0.07,336.0,WeatherDisplay:10.37,2013-04-29 16:36:00,
2013-04-29 18:41:00,54.2,36.4,30.05,WSW,248,11.1,11.5,51,0.00,FEW,,0.07,323.0,WeatherDisplay:10.37,2013-04-29 16:41:00,
2013-04-29 18:46:00,53.9,36.6,30.06,West,280,5.9,10.4,52,0.00,FEW,,0.07,301.0,WeatherDisplay:10.37,2013-04-29 16:46:00,
2013-04-29 18:51:00,53.7,36.0,30.06,West,262,9.6,13.8,51,0.00,FEW,,0.07,287.0,WeatherDisplay:10.37,2013-04-29 16:51:00,
2013-04-29 19:02:00,53.7,35.5,30.06,WSW,257,10.8,11.5,50,0.00,FEW,,0.07,258.0,WeatherDisplay:10.37,2013-04-29 17:02:00,
2013-04-29 19:07:00,54.1,36.3,30.06,West,275,5.0,11.5,51,0.00,FEW,,0.07,241.0,WeatherDisplay:10.37,2013-04-29 17:07:00,
2013-04-29 19:12:00,54.3,36.5,30.06,WSW,248,8.8,11.5,51,0.00,FEW,,0.07,225.0,WeatherDisplay:10.37,2013-04-29 17:12:00,
2013-04-29 19:17:00,54.1,37.3,30.06,WSW,250,6.3,7.0,53,0.00,FEW,,0.07,207.0,WeatherDisplay:10.37,2013-04-29 17:17:00,
2013-04-29 19:22:00,54.0,36.7,30.06,WSW,246,8.5,11.5,52,0.00,FEW,,0.07,193.0,WeatherDisplay:10.37,2013-04-29 17:22:00,
2013-04-29 19:27:00,53.7,36.9,30.06,SW,229,8.0,11.5,53,0.00,FEW,,0.07,176.0,WeatherDisplay:10.37,2013-04-29 17:27:00,
2013-04-29 19:32:00,53.2,37.0,30.07,WSW,240,10.6,13.0,54,0.00,FEW,,0.07,162.0,WeatherDisplay:10.37,2013-04-29 17:32:00,
2013-04-29 19:37:00,53.0,36.8,30.07,WSW,250,7.7,11.5,54,0.00,FEW,,0.07,144.0,WeatherDisplay:10.37,2013-04-29 17:37:00,
2013-04-29 19:42:00,52.8,36.6,30.07,SW,229,7.3,10.4,54,0.00,FEW,,0.07,130.0,WeatherDisplay:10.37,2013-04-29 17:42:00,
2013-04-29 19:47:00,52.6,36.9,30.07,WSW,253,8.5,10.0,55,0.00,FEW,,0.07,113.0,WeatherDisplay:10.37,2013-04-29 17:47:00,
2013-04-29 19:52:00,52.5,37.2,30.07,WSW,240,7.2,11.5,56,0.00,FEW,,0.07,100.0,WeatherDisplay:10.37,2013-04-29 17:52:00,
2013-04-29 19:57:00,52.4,37.1,30.07,WSW,244,9.6,12.7,56,0.00,FEW,,0.07,88.0,WeatherDisplay:10.37,2013-04-29 17:57:00,
2013-04-29 20:02:00,52.0,37.2,30.07,WSW,244,6.6,10.4,57,0.00,FEW,,0.07,76.0,WeatherDisplay:10.37,2013-04-29 18:02:00,
2013-04-29 20:07:00,51.7,37.4,30.08,WSW,242,6.6,8.1,58,0.00,FEW,,0.07,65.0,WeatherDisplay:10.37,2013-04-29 18:07:00,
2013-04-29 20:12:00,51.4,38.0,30.08,WSW,238,6.8,8.1,60,0.00,FEW,,0.07,51.0,WeatherDisplay:10.37,2013-04-29 18:12:00,
2013-04-29 20:17:00,51.0,38.0,30.08,WSW,237,6.4,10.4,61,0.00,FEW,,0.07,33.0,WeatherDisplay:10.37,2013-04-29 18:17:00,
2013-04-29 20:22:00,50.7,37.7,30.08,WSW,252,6.4,11.5,61,0.00,FEW,,0.07,30.0,WeatherDisplay:10.37,2013-04-29 18:22:00,
2013-04-29 20:27:00,50.3,37.7,30.08,WSW,248,5.5,5.8,62,0.00,FEW,,0.07,26.0,WeatherDisplay:10.37,2013-04-29 18:27:00,
2013-04-29 20:32:00,50.1,38.0,30.08,WSW,246,6.0,10.4,63,0.00,FEW,,0.07,23.0,WeatherDisplay:10.37,2013-04-29 18:32:00,
2013-04-29 20:37:00,49.8,37.7,30.08,WSW,242,6.5,11.5,63,0.00,FEW,,0.07,21.0,WeatherDisplay:10.37,2013-04-29 18:37:00,
2013-04-29 20:42:00,49.6,37.5,30.08,WSW,246,6.5,9.2,63,0.00,FEW,,0.07,18.0,WeatherDisplay:10.37,2013-04-29 18:42:00,
2013-04-29 20:47:00,49.4,38.1,30.08,WSW,242,5.2,9.2,65,0.00,FEW,,0.07,14.0,WeatherDisplay:10.37,2013-04-29 18:47:00,
2013-04-29 20:52:00,49.1,37.8,30.08,WSW,251,4.3,6.9,65,0.00,FEW,,0.07,11.0,WeatherDisplay:10.37,2013-04-29 18:52:00,
2013-04-29 20:57:00,49.0,38.1,30.08,WSW,250,4.4,5.8,66,0.00,FEW,,0.07,7.0,WeatherDisplay:10.37,2013-04-29 18:57:00,
2013-04-29 21:02:00,48.8,38.3,30.08,WSW,250,5.9,8.1,67,0.00,FEW,,0.07,5.0,WeatherDisplay:10.37,2013-04-29 19:02:00,
2013-04-29 21:07:00,48.5,38.0,30.08,WSW,250,3.7,4.6,67,0.00,FEW,,0.07,0.0,WeatherDisplay:10.37,2013-04-29 19:07:00,
2013-04-29 21:12:00,48.4,38.3,30.08,WSW,250,3.9,4.6,68,0.00,FEW,,0.07,0.0,WeatherDisplay:10.37,2013-04-29 19:12:00,
2013-04-29 21:17:00,48.3,38.2,30.08,WSW,247,1.2,3.5,68,0.00,FEW,,0.07,0.0,WeatherDisplay:10.37,2013-04-29 19:17:00,
2013-04-29 21:22:00,47.9,38.2,30.09,WSW,246,0.2,3.5,69,0.00,FEW,,0.07,0.0,WeatherDisplay:10.37,2013-04-29 19:22:00,
2013-04-29 21:29:00,47.1,37.8,30.09,WSW,246,1.7,3.0,70,0.00,CLR,,0.07,0.0,WeatherDisplay:10.37,2013-04-29 19:29:00,
2013-04-29 21:34:00,46.6,37.7,30.09,WSW,246,1.6,3.5,71,0.00,CLR,,0.07,0.0,WeatherDisplay:10.37,2013-04-29 19:34:00,
2013-04-29 21:39:00,46.3,37.4,30.09,WSW,246,1.1,3.5,71,0.00,CLR,,0.07,0.0,WeatherDisplay:10.37,2013-04-29 19:39:00,
2013-04-29 21:44:00,46.0,37.5,30.09,WSW,246,0.3,3.5,72,0.00,CLR,,0.07,0.0,WeatherDisplay:10.37,2013-04-29 19:44:00,
2013-04-29 21:49:00,45.9,37.4,30.09,WSW,246,0.0,0.0,72,0.00,CLR,,0.07,0.0,WeatherDisplay:10.37,2013-04-29 19:49:00,
2013-04-29 21:54:00,45.9,37.7,30.10,WSW,246,1.9,3.0,73,0.00,CLR,,0.07,0.0,WeatherDisplay:10.37,2013-04-29 19:54:00,
2013-04-29 21:59:00,45.9,37.7,30.10,WSW,246,0.0,2.3,73,0.00,CLR,,0.07,0.0,WeatherDisplay:10.37,2013-04-29 19:59:00,
2013-04-29 22:04:00,45.8,38.0,30.10,WSW,246,2.4,3.5,74,0.00,CLR,,0.07,0.0,WeatherDisplay:10.37,2013-04-29 20:04:00,
2013-04-29 22:09:00,45.7,37.9,30.10,WSW,246,3.2,4.6,74,0.00,CLR,,0.07,0.0,WeatherDisplay:10.37,2013-04-29 20:09:00,
2013-04-29 22:14:00,45.5,38.0,30.10,WSW,246,1.5,3.5,75,0.00,CLR,,0.07,0.0,WeatherDisplay:10.37,2013-04-29 20:14:00,
2013-04-29 22:19:00,45.2,37.7,30.10,WSW,246,0.0,0.0,75,0.00,CLR,,0.07,0.0,WeatherDisplay:10.37,2013-04-29 20:19:00,
2013-04-29 22:24:00,44.9,37.8,30.10,WSW,246,0.9,3.5,76,0.00,CLR,,0.07,0.0,WeatherDisplay:10.37,2013-04-29 20:24:00,
2013-04-29 22:29:00,44.7,37.6,30.10,WSW,246,0.0,0.0,76,0.00,CLR,,0.07,0.0,WeatherDisplay:10.37,2013-04-29 20:29:00,
2013-04-29 22:34:00,44.4,37.6,30.10,WSW,246,0.0,0.0,77,0.00,CLR,,0.07,0.0,WeatherDisplay:10.37,2013-04-29 20:34:00,
2013-04-29 22:39:00,44.1,37.7,30.10,WSW,246,0.0,0.0,78,0.00,CLR,,0.07,0.0,WeatherDisplay:10.37,2013-04-29 20:39:00,
2013-04-29 22:44:00,43.9,37.5,30.10,WSW,246,0.0,0.0,78,0.00,CLR,,0.07,0.0,WeatherDisplay:10.37,2013-04-29 20:44:00,
2013-04-29 22:49:00,43.8,37.7,30.10,WSW,246,0.0,0.0,79,0.00,CLR,,0.07,0.0,WeatherDisplay:10.37,2013-04-29 20:49:00,
2013-04-29 22:54:00,43.7,37.6,30.10,WSW,246,2.3,3.5,79,0.00,CLR,,0.07,0.0,WeatherDisplay:10.37,2013-04-29 20:54:00,
2013-04-29 22:59:00,43.7,37.9,30.10,WSW,246,0.0,0.0,80,0.00,CLR,,0.07,0.0,WeatherDisplay:10.37,2013-04-29 20:59:00,
2013-04-29 23:04:00,43.6,37.8,30.10,WSW,246,0.0,0.0,80,0.00,CLR,,0.07,0.0,WeatherDisplay:10.37,2013-04-29 21:04:00,
2013-04-29 23:09:00,43.5,37.7,30.10,WSW,246,0.0,0.0,80,0.00,CLR,,0.07,0.0,WeatherDisplay:10.37,2013-04-29 21:09:00,
2013-04-29 23:14:00,43.5,38.0,30.10,WSW,246,0.0,0.0,81,0.00,CLR,,0.07,0.0,WeatherDisplay:10.37,2013-04-29 21:14:00,
2013-04-29 23:19:00,43.5,38.0,30.10,WSW,246,0.0,0.0,81,0.00,CLR,,0.07,0.0,WeatherDisplay:10.37,2013-04-29 21:19:00,
2013-04-29 23:24:00,43.5,38.0,30.10,WSW,246,1.4,3.5,81,0.00,CLR,,0.07,0.0,WeatherDisplay:10.37,2013-04-29 21:24:00,
2013-04-29 23:29:00,43.4,37.9,30.11,WSW,246,0.0,0.0,81,0.00,CLR,,0.07,0.0,WeatherDisplay:10.37,2013-04-29 21:29:00,
2013-04-29 23:34:00,43.3,37.8,30.11,WSW,246,0.0,0.0,81,0.00,CLR,,0.07,0.0,WeatherDisplay:10.37,2013-04-29 21:34:00,
2013-04-29 23:39:00,43.2,37.7,30.11,WSW,246,0.9,3.5,81,0.00,CLR,,0.07,0.0,WeatherDisplay:10.37,2013-04-29 21:39:00,
2013-04-29 23:44:00,43.1,37.6,30.11,WSW,246,0.1,2.3,81,0.00,CLR,,0.07,0.0,WeatherDisplay:10.37,2013-04-29 21:44:00,
2013-04-29 23:49:00,43.1,37.6,30.11,WSW,246,1.7,3.5,81,0.00,CLR,,0.07,0.0,WeatherDisplay:10.37,2013-04-29 21:49:00,
2013-04-29 23:54:00,43.0,37.9,30.11,WSW,246,0.3,3.5,82,0.00,CLR,,0.07,0.0,WeatherDisplay:10.37,2013-04-29 21:54:00,
2013-04-29 23:59:00,43.0,38.2,30.11,WSW,246,2.4,3.5,83,0.00,CLR,,0.07,0.0,WeatherDisplay:10.37,2013-04-29 21:59:00,